Terminal Aerodrome Forecast
Issued by NWS

Home | Current Version | Previous Version | Text Only | Print | Product List | Glossary On
Versions: 1 2 3 4 5 6 7 8 9 10 11 12 13 14 15 16 17 18 19 20 21 22 23 24
000
FTUS43 KLOT 210924 AAA
TAFORD
TAF AMD
KORD 210924Z 2109/2212 14004KT P6SM SCT025 BKN035 OVC045
     FM211200 15004KT 3SM BR OVC009
      TEMPO 2112/2114 1SM BR OVC004
     FM211900 10004KT 1 1/2SM -DZ BR OVC007
      TEMPO 2121/2124 3/4SM -DZ BR OVC003
     FM220000 11006KT 1SM -DZ BR OVC003
     FM221000 12007KT 2SM SHRA BR OVC004=

USA.gov is the U.S. government's official web portal to all federal, state and local government web resources and services.